sensor_id;sensor_type;location;lat;lon;timestamp;pressure;altitude;pressure_sealevel;temperature;humidity
34081;BME280;20358;50.272;19.026;2022-07-29T00:01:15;98563.91;;;17.84;56.94
34081;BME280;20358;50.272;19.026;2022-07-29T00:04:21;98569.44;;;17.80;57.07
34081;BME280;20358;50.272;19.026;2022-07-29T00:07:30;98560.53;;;17.82;57.01
34081;BME280;20358;50.272;19.026;2022-07-29T00:10:36;98562.19;;;17.83;56.80
34081;BME280;20358;50.272;19.026;2022-07-29T00:13:42;98557.88;;;17.82;56.64
34081;BME280;20358;50.272;19.026;2022-07-29T00:16:52;98566.56;;;17.84;56.72
34081;BME280;20358;50.272;19.026;2022-07-29T00:19:58;98558.59;;;17.84;56.44
34081;BME280;20358;50.272;19.026;2022-07-29T00:23:06;98551.59;;;17.83;56.05
34081;BME280;20358;50.272;19.026;2022-07-29T00:26:15;98549.19;;;17.79;55.96
34081;BME280;20358;50.272;19.026;2022-07-29T00:29:21;98551.28;;;17.76;55.91
34081;BME280;20358;50.272;19.026;2022-07-29T00:32:36;98550.66;;;17.72;55.43
34081;BME280;20358;50.272;19.026;2022-07-29T00:35:42;98546.22;;;17.73;55.67
34081;BME280;20358;50.272;19.026;2022-07-29T00:38:54;98548.25;;;17.69;55.40
34081;BME280;20358;50.272;19.026;2022-07-29T00:42:02;98550.19;;;17.67;55.28
34081;BME280;20358;50.272;19.026;2022-07-29T00:45:09;98544.19;;;17.65;55.23
34081;BME280;20358;50.272;19.026;2022-07-29T00:48:14;98542.72;;;17.61;55.34
34081;BME280;20358;50.272;19.026;2022-07-29T00:51:21;98546.59;;;17.57;55.54
34081;BME280;20358;50.272;19.026;2022-07-29T00:54:31;98542.38;;;17.55;55.33
34081;BME280;20358;50.272;19.026;2022-07-29T00:57:46;98536.38;;;17.53;55.54
34081;BME280;20358;50.272;19.026;2022-07-29T01:00:52;98538.19;;;17.52;55.26
34081;BME280;20358;50.272;19.026;2022-07-29T01:03:58;98535.06;;;17.47;55.25
34081;BME280;20358;50.272;19.026;2022-07-29T01:07:04;98531.94;;;17.42;55.17
34081;BME280;20358;50.272;19.026;2022-07-29T01:10:15;98530.25;;;17.41;55.34
34081;BME280;20358;50.272;19.026;2022-07-29T01:13:21;98526.88;;;17.39;55.19
34081;BME280;20358;50.272;19.026;2022-07-29T01:16:32;98525.44;;;17.35;55.36
34081;BME280;20358;50.272;19.026;2022-07-29T01:19:48;98526.63;;;17.31;55.32
34081;BME280;20358;50.272;19.026;2022-07-29T01:23:20;98526.78;;;17.30;55.08
34081;BME280;20358;50.272;19.026;2022-07-29T01:26:42;98517.50;;;17.24;55.13
34081;BME280;20358;50.272;19.026;2022-07-29T01:29:54;98525.31;;;17.26;55.06
34081;BME280;20358;50.272;19.026;2022-07-29T01:33:07;98527.84;;;17.27;54.76
34081;BME280;20358;50.272;19.026;2022-07-29T01:36:37;98525.91;;;17.29;54.83
34081;BME280;20358;50.272;19.026;2022-07-29T01:39:47;98524.00;;;17.31;54.39
34081;BME280;20358;50.272;19.026;2022-07-29T01:42:55;98522.91;;;17.34;54.52
34081;BME280;20358;50.272;19.026;2022-07-29T01:46:10;98511.47;;;17.33;54.25
34081;BME280;20358;50.272;19.026;2022-07-29T01:49:20;98506.16;;;17.33;54.17
34081;BME280;20358;50.272;19.026;2022-07-29T01:52:36;98504.50;;;17.32;54.01
34081;BME280;20358;50.272;19.026;2022-07-29T01:55:44;98508.09;;;17.31;53.77
34081;BME280;20358;50.272;19.026;2022-07-29T01:58:52;98508.09;;;17.31;53.77
34081;BME280;20358;50.272;19.026;2022-07-29T02:02:04;98509.78;;;17.32;53.80
34081;BME280;20358;50.272;19.026;2022-07-29T02:05:14;98502.81;;;17.31;53.88
34081;BME280;20358;50.272;19.026;2022-07-29T02:08:21;98506.44;;;17.30;53.48
34081;BME280;20358;50.272;19.026;2022-07-29T02:11:29;98500.16;;;17.31;53.57
34081;BME280;20358;50.272;19.026;2022-07-29T02:14:50;98501.13;;;17.30;53.67
34081;BME280;20358;50.272;19.026;2022-07-29T02:18:02;98501.25;;;17.29;53.72
34081;BME280;20358;50.272;19.026;2022-07-29T02:21:11;98500.28;;;17.30;53.45
34081;BME280;20358;50.272;19.026;2022-07-29T02:24:18;98499.44;;;17.29;53.35
34081;BME280;20358;50.272;19.026;2022-07-29T02:27:26;98500.28;;;17.30;53.51
34081;BME280;20358;50.272;19.026;2022-07-29T02:30:36;98491.59;;;17.28;53.26
34081;BME280;20358;50.272;19.026;2022-07-29T02:33:45;98491.34;;;17.31;53.35
34081;BME280;20358;50.272;19.026;2022-07-29T02:36:54;98493.91;;;17.32;53.56
34081;BME280;20358;50.272;19.026;2022-07-29T02:40:03;98491.72;;;17.37;53.40
34081;BME280;20358;50.272;19.026;2022-07-29T02:43:10;98493.16;;;17.41;53.32
34081;BME280;20358;50.272;19.026;2022-07-29T02:46:20;98484.50;;;17.39;53.22
34081;BME280;20358;50.272;19.026;2022-07-29T02:49:37;98484.13;;;17.44;53.04
34081;BME280;20358;50.272;19.026;2022-07-29T02:52:46;98482.69;;;17.40;53.27
34081;BME280;20358;50.272;19.026;2022-07-29T02:55:56;98477.25;;;17.41;53.15
34081;BME280;20358;50.272;19.026;2022-07-29T02:59:08;98467.38;;;17.43;53.13
34081;BME280;20358;50.272;19.026;2022-07-29T03:02:16;98473.28;;;17.47;53.12
34081;BME280;20358;50.272;19.026;2022-07-29T03:05:26;98478.19;;;17.51;53.06
34081;BME280;20358;50.272;19.026;2022-07-29T03:08:34;98485.19;;;17.52;53.19
34081;BME280;20358;50.272;19.026;2022-07-29T03:11:41;98476.41;;;17.52;53.02
34081;BME280;20358;50.272;19.026;2022-07-29T03:14:53;98481.31;;;17.56;52.94
34081;BME280;20358;50.272;19.026;2022-07-29T03:17:59;98482.16;;;17.57;53.04
34081;BME280;20358;50.272;19.026;2022-07-29T03:21:11;98479.41;;;17.58;52.81
34081;BME280;20358;50.272;19.026;2022-07-29T03:24:30;98487.47;;;17.57;53.06
34081;BME280;20358;50.272;19.026;2022-07-29T03:27:36;98477.25;;;17.52;52.99
34081;BME280;20358;50.272;19.026;2022-07-29T03:30:42;98473.75;;;17.52;53.20
34081;BME280;20358;50.272;19.026;2022-07-29T03:33:49;98484.34;;;17.52;53.14
34081;BME280;20358;50.272;19.026;2022-07-29T03:36:58;98483.25;;;17.54;53.20
34081;BME280;20358;50.272;19.026;2022-07-29T03:40:07;98479.66;;;17.55;53.18
34081;BME280;20358;50.272;19.026;2022-07-29T03:43:15;98479.66;;;17.55;53.07
34081;BME280;20358;50.272;19.026;2022-07-29T03:46:23;98488.31;;;17.57;53.38
34081;BME280;20358;50.272;19.026;2022-07-29T03:49:32;98487.34;;;17.58;53.31
34081;BME280;20358;50.272;19.026;2022-07-29T03:52:45;98484.44;;;17.61;53.61
34081;BME280;20358;50.272;19.026;2022-07-29T03:55:54;98471.19;;;17.61;53.53
34081;BME280;20358;50.272;19.026;2022-07-29T03:59:05;98464.31;;;17.59;53.56
34081;BME280;20358;50.272;19.026;2022-07-29T04:02:11;98461.81;;;17.57;53.68
34081;BME280;20358;50.272;19.026;2022-07-29T04:05:24;98468.81;;;17.58;53.70
34081;BME280;20358;50.272;19.026;2022-07-29T04:08:32;98471.94;;;17.63;53.76
34081;BME280;20358;50.272;19.026;2022-07-29T04:11:40;98477.22;;;17.63;53.67
34081;BME280;20358;50.272;19.026;2022-07-29T04:15:05;98478.88;;;17.64;53.77
34081;BME280;20358;50.272;19.026;2022-07-29T04:18:12;98474.56;;;17.63;54.03
34081;BME280;20358;50.272;19.026;2022-07-29T04:21:17;98475.38;;;17.75;53.92
34081;BME280;20358;50.272;19.026;2022-07-29T04:24:26;98474.03;;;17.80;53.87
34081;BME280;20358;50.272;19.026;2022-07-29T04:27:33;98476.88;;;17.89;53.82
34081;BME280;20358;50.272;19.026;2022-07-29T04:30:59;98473.50;;;17.98;53.87
34081;BME280;20358;50.272;19.026;2022-07-29T04:34:04;98479.00;;;18.06;53.82
34081;BME280;20358;50.272;19.026;2022-07-29T04:37:11;98473.81;;;18.15;53.74
34081;BME280;20358;50.272;19.026;2022-07-29T04:40:20;98472.44;;;18.21;53.67
34081;BME280;20358;50.272;19.026;2022-07-29T04:43:26;98468.41;;;18.26;53.65
34081;BME280;20358;50.272;19.026;2022-07-29T04:46:37;98459.09;;;18.32;53.41
34081;BME280;20358;50.272;19.026;2022-07-29T04:49:44;98469.19;;;18.38;53.46
34081;BME280;20358;50.272;19.026;2022-07-29T04:52:50;98462.22;;;18.37;53.59
34081;BME280;20358;50.272;19.026;2022-07-29T04:55:59;98466.94;;;18.33;53.47
34081;BME280;20358;50.272;19.026;2022-07-29T04:59:05;98467.75;;;18.34;53.66
34081;BME280;20358;50.272;19.026;2022-07-29T05:02:14;98455.50;;;18.33;53.74
34081;BME280;20358;50.272;19.026;2022-07-29T05:05:20;98455.59;;;18.31;53.45
34081;BME280;20358;50.272;19.026;2022-07-29T05:08:26;98458.66;;;18.27;53.96
34081;BME280;20358;50.272;19.026;2022-07-29T05:11:34;98454.06;;;18.29;54.01
34081;BME280;20358;50.272;19.026;2022-07-29T05:14:41;98463.91;;;18.38;54.17
34081;BME280;20358;50.272;19.026;2022-07-29T05:17:46;98465.13;;;18.55;54.21
34081;BME280;20358;50.272;19.026;2022-07-29T05:20:52;98470.22;;;18.67;54.01
34081;BME280;20358;50.272;19.026;2022-07-29T05:24:01;98467.81;;;18.85;53.64
34081;BME280;20358;50.272;19.026;2022-07-29T05:27:13;98462.56;;;18.94;53.49
34081;BME280;20358;50.272;19.026;2022-07-29T05:30:18;98462.88;;;19.01;53.77
34081;BME280;20358;50.272;19.026;2022-07-29T05:33:25;98463.75;;;19.11;53.38
34081;BME280;20358;50.272;19.026;2022-07-29T05:36:38;98464.72;;;19.20;53.33
34081;BME280;20358;50.272;19.026;2022-07-29T05:39:47;98466.59;;;19.29;53.40
34081;BME280;20358;50.272;19.026;2022-07-29T05:43:01;98464.97;;;19.47;53.53
34081;BME280;20358;50.272;19.026;2022-07-29T05:46:08;98462.19;;;19.58;53.39
34081;BME280;20358;50.272;19.026;2022-07-29T05:49:13;98457.50;;;19.71;53.25
34081;BME280;20358;50.272;19.026;2022-07-29T05:52:29;98456.63;;;19.80;52.99
34081;BME280;20358;50.272;19.026;2022-07-29T05:55:35;98454.81;;;19.90;53.14
34081;BME280;20358;50.272;19.026;2022-07-29T05:58:44;98454.53;;;20.03;53.18
34081;BME280;20358;50.272;19.026;2022-07-29T06:01:49;98452.03;;;20.20;53.13
34081;BME280;20358;50.272;19.026;2022-07-29T06:04:56;98446.81;;;20.38;52.75
34081;BME280;20358;50.272;19.026;2022-07-29T06:08:02;98455.50;;;20.50;52.65
34081;BME280;20358;50.272;19.026;2022-07-29T06:11:10;98441.47;;;20.67;52.54
34081;BME280;20358;50.272;19.026;2022-07-29T06:14:18;98440.97;;;20.81;52.36
34081;BME280;20358;50.272;19.026;2022-07-29T06:17:25;98444.75;;;20.88;52.45
34081;BME280;20358;50.272;19.026;2022-07-29T06:20:31;98455.59;;;21.04;52.12
34081;BME280;20358;50.272;19.026;2022-07-29T06:23:39;98453.88;;;21.13;52.09
34081;BME280;20358;50.272;19.026;2022-07-29T06:26:45;98455.25;;;21.26;52.09
34081;BME280;20358;50.272;19.026;2022-07-29T06:29:54;98458.25;;;21.41;51.59
34081;BME280;20358;50.272;19.026;2022-07-29T06:33:03;98475.66;;;21.45;51.31
34081;BME280;20358;50.272;19.026;2022-07-29T06:36:09;98467.25;;;21.40;51.19
34081;BME280;20358;50.272;19.026;2022-07-29T06:39:14;98461.09;;;21.39;51.56
34081;BME280;20358;50.272;19.026;2022-07-29T06:42:21;98470.84;;;21.49;51.52
34081;BME280;20358;50.272;19.026;2022-07-29T06:45:30;98474.38;;;21.67;51.20
34081;BME280;20358;50.272;19.026;2022-07-29T06:48:36;98460.22;;;21.84;51.29
34081;BME280;20358;50.272;19.026;2022-07-29T06:51:42;98459.19;;;22.12;51.03
34081;BME280;20358;50.272;19.026;2022-07-29T06:54:49;98464.09;;;22.42;50.47
34081;BME280;20358;50.272;19.026;2022-07-29T06:57:56;98455.06;;;22.61;50.26
34081;BME280;20358;50.272;19.026;2022-07-29T07:01:07;98456.75;;;22.88;49.91
34081;BME280;20358;50.272;19.026;2022-07-29T07:04:14;98454.19;;;23.12;49.30
34081;BME280;20358;50.272;19.026;2022-07-29T07:07:21;98453.03;;;23.14;49.04
34081;BME280;20358;50.272;19.026;2022-07-29T07:10:28;98447.41;;;23.25;48.94
34081;BME280;20358;50.272;19.026;2022-07-29T07:13:35;98452.25;;;23.30;48.68
34081;BME280;20358;50.272;19.026;2022-07-29T07:16:43;98459.38;;;23.47;48.99
34081;BME280;20358;50.272;19.026;2022-07-29T07:19:49;98451.38;;;23.55;48.64
34081;BME280;20358;50.272;19.026;2022-07-29T07:22:55;98462.44;;;23.68;48.54
34081;BME280;20358;50.272;19.026;2022-07-29T07:26:03;98457.75;;;23.62;48.50
34081;BME280;20358;50.272;19.026;2022-07-29T07:29:09;98458.03;;;23.51;48.55
34081;BME280;20358;50.272;19.026;2022-07-29T07:32:18;98452.47;;;23.37;49.37
34081;BME280;20358;50.272;19.026;2022-07-29T07:35:25;98445.91;;;23.31;49.50
34081;BME280;20358;50.272;19.026;2022-07-29T07:38:32;98452.25;;;23.30;49.50
34081;BME280;20358;50.272;19.026;2022-07-29T07:41:38;98453.00;;;23.40;49.92
34081;BME280;20358;50.272;19.026;2022-07-29T07:44:44;98451.03;;;23.58;49.49
34081;BME280;20358;50.272;19.026;2022-07-29T07:48:13;98449.09;;;23.93;49.26
34081;BME280;20358;50.272;19.026;2022-07-29T07:51:19;98451.84;;;24.25;48.81
34081;BME280;20358;50.272;19.026;2022-07-29T07:54:25;98458.53;;;24.53;48.45
34081;BME280;20358;50.272;19.026;2022-07-29T07:57:32;98447.44;;;24.72;48.32
34081;BME280;20358;50.272;19.026;2022-07-29T08:00:38;98450.41;;;24.93;47.55
34081;BME280;20358;50.272;19.026;2022-07-29T08:03:47;98449.03;;;25.14;47.54
34081;BME280;20358;50.272;19.026;2022-07-29T08:06:53;98444.00;;;25.19;47.16
34081;BME280;20358;50.272;19.026;2022-07-29T08:10:00;98447.09;;;25.38;47.38
34081;BME280;20358;50.272;19.026;2022-07-29T08:13:08;98451.75;;;25.52;47.04
34081;BME280;20358;50.272;19.026;2022-07-29T08:16:16;98455.06;;;25.54;46.87
34081;BME280;20358;50.272;19.026;2022-07-29T08:19:31;98450.19;;;25.58;46.81
34081;BME280;20358;50.272;19.026;2022-07-29T08:22:40;98449.13;;;25.67;46.70
34081;BME280;20358;50.272;19.026;2022-07-29T08:25:49;98446.44;;;25.67;46.57
34081;BME280;20358;50.272;19.026;2022-07-29T08:28:59;98445.78;;;25.65;46.69
34081;BME280;20358;50.272;19.026;2022-07-29T08:32:05;98429.66;;;25.73;46.56
34081;BME280;20358;50.272;19.026;2022-07-29T08:35:14;98443.19;;;25.80;46.55
34081;BME280;20358;50.272;19.026;2022-07-29T08:38:20;98446.41;;;25.75;46.57
34081;BME280;20358;50.272;19.026;2022-07-29T08:41:26;98435.19;;;25.72;46.57
34081;BME280;20358;50.272;19.026;2022-07-29T08:44:32;98439.94;;;25.84;46.47
34081;BME280;20358;50.272;19.026;2022-07-29T08:47:39;98435.25;;;25.86;46.23
34081;BME280;20358;50.272;19.026;2022-07-29T08:50:50;98442.34;;;25.79;45.95
34081;BME280;20358;50.272;19.026;2022-07-29T08:53:58;98456.09;;;25.76;46.40
34081;BME280;20358;50.272;19.026;2022-07-29T08:57:04;98460.81;;;25.74;46.25
34081;BME280;20358;50.272;19.026;2022-07-29T09:00:11;98455.16;;;25.69;46.51
34081;BME280;20358;50.272;19.026;2022-07-29T09:03:22;98441.72;;;25.69;46.40
34081;BME280;20358;50.272;19.026;2022-07-29T09:06:34;98451.41;;;25.78;46.13
34081;BME280;20358;50.272;19.026;2022-07-29T09:09:42;98442.94;;;25.89;46.11
34081;BME280;20358;50.272;19.026;2022-07-29T09:12:49;98442.84;;;26.05;45.66
34081;BME280;20358;50.272;19.026;2022-07-29T09:15:55;98437.63;;;26.12;45.69
34081;BME280;20358;50.272;19.026;2022-07-29T09:19:19;98428.94;;;26.24;45.43
34081;BME280;20358;50.272;19.026;2022-07-29T09:22:31;98430.09;;;26.30;45.79
34081;BME280;20358;50.272;19.026;2022-07-29T09:25:43;98426.50;;;26.52;45.55
34081;BME280;20358;50.272;19.026;2022-07-29T09:28:50;98431.50;;;26.55;45.34
34081;BME280;20358;50.272;19.026;2022-07-29T09:32:09;98439.56;;;26.41;44.96
34081;BME280;20358;50.272;19.026;2022-07-29T09:35:17;98435.19;;;26.40;45.16
34081;BME280;20358;50.272;19.026;2022-07-29T09:38:26;98412.31;;;26.44;44.94
34081;BME280;20358;50.272;19.026;2022-07-29T09:41:44;98426.31;;;26.54;44.93
34081;BME280;20358;50.272;19.026;2022-07-29T09:44:50;98419.63;;;26.50;45.17
34081;BME280;20358;50.272;19.026;2022-07-29T09:47:56;98416.31;;;26.48;44.83
34081;BME280;20358;50.272;19.026;2022-07-29T09:51:17;98406.63;;;26.61;44.77
34081;BME280;20358;50.272;19.026;2022-07-29T09:54:42;98412.28;;;26.96;44.80
34081;BME280;20358;50.272;19.026;2022-07-29T09:57:48;98410.59;;;27.09;44.37
34081;BME280;20358;50.272;19.026;2022-07-29T10:00:55;98412.50;;;27.23;44.13
34081;BME280;20358;50.272;19.026;2022-07-29T10:04:03;98405.38;;;27.52;43.71
34081;BME280;20358;50.272;19.026;2022-07-29T10:07:09;98394.75;;;27.65;43.29
34081;BME280;20358;50.272;19.026;2022-07-29T10:10:22;98403.09;;;27.70;43.10
34081;BME280;20358;50.272;19.026;2022-07-29T10:13:28;98393.59;;;27.74;42.99
34081;BME280;20358;50.272;19.026;2022-07-29T10:16:36;98410.81;;;27.94;42.97
34081;BME280;20358;50.272;19.026;2022-07-29T10:19:42;98400.44;;;27.91;42.34
34081;BME280;20358;50.272;19.026;2022-07-29T10:22:48;98399.34;;;27.71;42.73
34081;BME280;20358;50.272;19.026;2022-07-29T10:25:58;98397.72;;;27.70;42.87
34081;BME280;20358;50.272;19.026;2022-07-29T10:29:05;98392.25;;;27.63;43.33
34081;BME280;20358;50.272;19.026;2022-07-29T10:32:33;98387.84;;;27.77;42.90
34081;BME280;20358;50.272;19.026;2022-07-29T10:35:57;98388.25;;;27.95;42.50
34081;BME280;20358;50.272;19.026;2022-07-29T10:39:12;98388.16;;;28.09;42.52
34081;BME280;20358;50.272;19.026;2022-07-29T10:42:29;98376.69;;;28.22;42.58
34081;BME280;20358;50.272;19.026;2022-07-29T10:45:36;98383.84;;;28.36;42.33
34081;BME280;20358;50.272;19.026;2022-07-29T10:49:05;98383.50;;;28.46;41.77
34081;BME280;20358;50.272;19.026;2022-07-29T10:52:12;98383.56;;;28.52;41.49
34081;BME280;20358;50.272;19.026;2022-07-29T10:55:33;98383.69;;;28.72;41.47
34081;BME280;20358;50.272;19.026;2022-07-29T11:02:42;98382.06;;;28.78;41.16
34081;BME280;20358;50.272;19.026;2022-07-29T11:05:53;98376.44;;;28.73;40.42
34081;BME280;20358;50.272;19.026;2022-07-29T11:09:16;98375.50;;;28.87;40.93
34081;BME280;20358;50.272;19.026;2022-07-29T11:12:46;98375.19;;;29.03;41.29
34081;BME280;20358;50.272;19.026;2022-07-29T11:15:57;98384.78;;;29.05;40.53
34081;BME280;20358;50.272;19.026;2022-07-29T11:19:19;98382.47;;;29.02;40.34
34081;BME280;20358;50.272;19.026;2022-07-29T11:22:33;98382.66;;;29.01;40.55
34081;BME280;20358;50.272;19.026;2022-07-29T11:26:13;98376.47;;;29.07;39.64
34081;BME280;20358;50.272;19.026;2022-07-29T11:29:21;98381.06;;;29.13;39.84
34081;BME280;20358;50.272;19.026;2022-07-29T11:32:39;98375.06;;;29.24;40.41
34081;BME280;20358;50.272;19.026;2022-07-29T11:36:07;98381.41;;;29.44;39.59
34081;BME280;20358;50.272;19.026;2022-07-29T11:39:27;98372.94;;;29.60;39.11
34081;BME280;20358;50.272;19.026;2022-07-29T11:42:44;98375.88;;;29.78;39.15
34081;BME280;20358;50.272;19.026;2022-07-29T11:45:52;98366.34;;;29.82;39.66
34081;BME280;20358;50.272;19.026;2022-07-29T11:49:03;98376.38;;;30.08;39.52
34081;BME280;20358;50.272;19.026;2022-07-29T11:52:10;98364.94;;;30.39;39.26
34081;BME280;20358;50.272;19.026;2022-07-29T11:55:18;98361.59;;;30.63;38.42
34081;BME280;20358;50.272;19.026;2022-07-29T11:58:37;98371.38;;;30.71;38.51
34081;BME280;20358;50.272;19.026;2022-07-29T12:01:52;98364.72;;;30.47;38.64
34081;BME280;20358;50.272;19.026;2022-07-29T12:05:25;98363.47;;;30.49;39.16
34081;BME280;20358;50.272;19.026;2022-07-29T12:08:40;98357.00;;;30.57;38.62
34081;BME280;20358;50.272;19.026;2022-07-29T12:11:48;98357.41;;;30.67;38.86
34081;BME280;20358;50.272;19.026;2022-07-29T12:14:55;98364.84;;;30.85;38.75
34081;BME280;20358;50.272;19.026;2022-07-29T12:18:13;98362.38;;;30.83;37.90
34081;BME280;20358;50.272;19.026;2022-07-29T12:21:23;98363.81;;;30.79;37.79
34081;BME280;20358;50.272;19.026;2022-07-29T12:24:42;98369.66;;;30.89;38.28
34081;BME280;20358;50.272;19.026;2022-07-29T12:27:58;98358.00;;;30.82;37.71
34081;BME280;20358;50.272;19.026;2022-07-29T12:31:04;98359.28;;;30.73;38.14
34081;BME280;20358;50.272;19.026;2022-07-29T12:34:11;98363.47;;;30.63;38.07
34081;BME280;20358;50.272;19.026;2022-07-29T12:37:22;98363.44;;;30.56;38.31
34081;BME280;20358;50.272;19.026;2022-07-29T12:40:44;98359.28;;;30.73;38.42
34081;BME280;20358;50.272;19.026;2022-07-29T12:43:53;98357.97;;;30.95;38.33
34081;BME280;20358;50.272;19.026;2022-07-29T12:47:02;98356.31;;;30.88;36.94
34081;BME280;20358;50.272;19.026;2022-07-29T12:50:10;98364.72;;;30.47;38.08
34081;BME280;20358;50.272;19.026;2022-07-29T12:53:20;98358.50;;;30.27;38.20
34081;BME280;20358;50.272;19.026;2022-07-29T12:56:26;98348.50;;;30.21;38.00
34081;BME280;20358;50.272;19.026;2022-07-29T12:59:45;98355.56;;;30.28;38.49
34081;BME280;20358;50.272;19.026;2022-07-29T13:03:04;98352.44;;;30.25;37.99
34081;BME280;20358;50.272;19.026;2022-07-29T13:06:36;98329.97;;;29.91;37.67
34081;BME280;20358;50.272;19.026;2022-07-29T13:09:45;98340.53;;;29.60;38.34
34081;BME280;20358;50.272;19.026;2022-07-29T13:13:03;98337.00;;;29.53;38.40
34081;BME280;20358;50.272;19.026;2022-07-29T13:16:08;98334.22;;;29.40;38.50
34081;BME280;20358;50.272;19.026;2022-07-29T13:19:14;98338.78;;;29.33;38.03
34081;BME280;20358;50.272;19.026;2022-07-29T13:22:22;98344.97;;;29.27;38.26
34081;BME280;20358;50.272;19.026;2022-07-29T13:25:32;98326.66;;;29.09;38.08
34081;BME280;20358;50.272;19.026;2022-07-29T13:28:42;98325.81;;;29.02;38.00
34081;BME280;20358;50.272;19.026;2022-07-29T13:31:49;98314.19;;;29.02;39.02
34081;BME280;20358;50.272;19.026;2022-07-29T13:34:54;98313.34;;;29.01;38.86
34081;BME280;20358;50.272;19.026;2022-07-29T13:38:02;98295.50;;;29.07;39.33
34081;BME280;20358;50.272;19.026;2022-07-29T13:41:10;98297.84;;;28.76;38.90
34081;BME280;20358;50.272;19.026;2022-07-29T13:44:17;98294.22;;;28.55;39.61
34081;BME280;20358;50.272;19.026;2022-07-29T13:47:22;98277.81;;;28.50;39.29
34081;BME280;20358;50.272;19.026;2022-07-29T13:50:34;98272.97;;;28.39;40.36
34081;BME280;20358;50.272;19.026;2022-07-29T13:53:40;98283.19;;;28.50;39.96
34081;BME280;20358;50.272;19.026;2022-07-29T13:56:49;98282.81;;;28.53;39.88
34081;BME280;20358;50.272;19.026;2022-07-29T13:59:55;98278.66;;;28.57;39.90
34081;BME280;20358;50.272;19.026;2022-07-29T14:03:12;98277.34;;;28.40;40.02
34081;BME280;20358;50.272;19.026;2022-07-29T14:06:20;98262.19;;;28.39;40.38
34081;BME280;20358;50.272;19.026;2022-07-29T14:09:28;98262.94;;;28.33;40.14
34081;BME280;20358;50.272;19.026;2022-07-29T14:12:45;98261.38;;;28.18;40.36
34081;BME280;20358;50.272;19.026;2022-07-29T14:15:52;98256.56;;;28.06;40.07
34081;BME280;20358;50.272;19.026;2022-07-29T14:18:57;98255.09;;;28.04;40.24
34081;BME280;20358;50.272;19.026;2022-07-29T14:22:06;98257.34;;;28.00;39.68
34081;BME280;20358;50.272;19.026;2022-07-29T14:25:12;98251.34;;;27.98;40.21
34081;BME280;20358;50.272;19.026;2022-07-29T14:28:21;98248.44;;;28.00;40.86
34081;BME280;20358;50.272;19.026;2022-07-29T14:31:27;98242.41;;;27.98;40.63
34081;BME280;20358;50.272;19.026;2022-07-29T14:34:33;98244.25;;;27.91;40.70
34081;BME280;20358;50.272;19.026;2022-07-29T14:37:39;98251.28;;;27.92;40.78
34081;BME280;20358;50.272;19.026;2022-07-29T14:40:45;98255.34;;;28.09;40.78
34081;BME280;20358;50.272;19.026;2022-07-29T14:43:54;98251.16;;;28.34;40.14
34081;BME280;20358;50.272;19.026;2022-07-29T14:47:04;98240.53;;;28.60;39.89
34081;BME280;20358;50.272;19.026;2022-07-29T14:50:10;98230.81;;;28.73;39.76
34081;BME280;20358;50.272;19.026;2022-07-29T14:53:17;98225.88;;;28.83;39.94
34081;BME280;20358;50.272;19.026;2022-07-29T14:56:22;98216.53;;;28.79;39.89
34081;BME280;20358;50.272;19.026;2022-07-29T14:59:42;98228.97;;;28.80;39.50
34081;BME280;20358;50.272;19.026;2022-07-29T15:02:47;98226.50;;;28.78;39.62
34081;BME280;20358;50.272;19.026;2022-07-29T15:06:04;98220.88;;;28.80;40.12
34081;BME280;20358;50.272;19.026;2022-07-29T15:09:09;98224.22;;;28.82;39.93
34081;BME280;20358;50.272;19.026;2022-07-29T15:12:16;98223.94;;;28.63;40.28
34081;BME280;20358;50.272;19.026;2022-07-29T15:15:24;98242.09;;;28.48;40.65
34081;BME280;20358;50.272;19.026;2022-07-29T15:18:31;98244.72;;;28.35;40.77
34081;BME280;20358;50.272;19.026;2022-07-29T15:21:37;98249.81;;;28.17;40.67
34081;BME280;20358;50.272;19.026;2022-07-29T15:25:03;98249.22;;;27.94;41.05
34081;BME280;20358;50.272;19.026;2022-07-29T15:28:09;98264.75;;;27.71;41.49
34081;BME280;20358;50.272;19.026;2022-07-29T15:31:18;98259.66;;;27.55;41.85
34081;BME280;20358;50.272;19.026;2022-07-29T15:34:23;98252.84;;;27.37;41.83
34081;BME280;20358;50.272;19.026;2022-07-29T15:37:30;98253.38;;;27.26;41.95
34081;BME280;20358;50.272;19.026;2022-07-29T15:40:50;98262.41;;;27.04;42.15
34081;BME280;20358;50.272;19.026;2022-07-29T15:43:56;98258.19;;;26.95;42.70
34081;BME280;20358;50.272;19.026;2022-07-29T15:47:05;98263.94;;;26.92;42.74
34081;BME280;20358;50.272;19.026;2022-07-29T15:50:12;98267.63;;;26.91;43.08
34081;BME280;20358;50.272;19.026;2022-07-29T15:53:18;98266.41;;;26.94;42.98
34081;BME280;20358;50.272;19.026;2022-07-29T15:56:24;98260.19;;;26.93;42.78
34081;BME280;20358;50.272;19.026;2022-07-29T15:59:30;98259.41;;;26.93;42.99
34081;BME280;20358;50.272;19.026;2022-07-29T16:02:40;98253.19;;;26.92;43.36
34081;BME280;20358;50.272;19.026;2022-07-29T16:05:45;98252.72;;;26.88;43.21
34081;BME280;20358;50.272;19.026;2022-07-29T16:08:52;98255.97;;;26.84;43.41
34081;BME280;20358;50.272;19.026;2022-07-29T16:11:57;98258.41;;;26.79;43.51
34081;BME280;20358;50.272;19.026;2022-07-29T16:15:12;98247.56;;;26.72;43.54
34081;BME280;20358;50.272;19.026;2022-07-29T16:18:20;98248.75;;;26.70;43.62
34081;BME280;20358;50.272;19.026;2022-07-29T16:21:32;98245.44;;;26.68;43.80
34081;BME280;20358;50.272;19.026;2022-07-29T16:24:38;98253.22;;;26.63;43.76
34081;BME280;20358;50.272;19.026;2022-07-29T16:27:44;98254.06;;;26.63;43.86
34081;BME280;20358;50.272;19.026;2022-07-29T16:30:49;98252.03;;;26.65;43.80
34081;BME280;20358;50.272;19.026;2022-07-29T16:33:59;98253.88;;;26.65;43.82
34081;BME280;20358;50.272;19.026;2022-07-29T16:37:05;98266.38;;;26.58;43.90